createdAt,value
2023-01-19T00:01:43.299Z,93954.68
2023-01-19T00:04:11.578Z,93956.70
2023-01-19T00:06:39.720Z,93953.33
2023-01-19T00:09:07.826Z,93959.69
2023-01-19T00:11:35.994Z,93955.63
2023-01-19T00:14:04.776Z,93948.48
2023-01-19T00:16:32.999Z,93946.46
2023-01-19T00:19:01.175Z,93942.67
2023-01-19T00:21:29.353Z,93933.80
2023-01-19T00:23:57.550Z,93929.02
2023-01-19T00:26:25.739Z,93929.88
2023-01-19T00:28:53.850Z,93925.86
2023-01-19T00:31:22.227Z,93925.67
2023-01-19T00:33:53.001Z,93921.43
2023-01-19T00:36:21.275Z,93928.88
2023-01-19T00:38:49.362Z,93927.09
2023-01-19T00:41:17.767Z,93930.52
2023-01-19T00:43:46.032Z,93940.52
2023-01-19T00:46:14.228Z,93947.89
2023-01-19T00:48:42.332Z,93949.91
2023-01-19T00:51:10.477Z,93948.69
2023-01-19T00:53:38.734Z,93949.67
2023-01-19T00:56:07.339Z,93945.91
2023-01-19T00:58:35.484Z,93953.52
2023-01-19T01:01:05.020Z,93953.52
2023-01-19T01:03:33.290Z,93948.05
2023-01-19T01:06:01.387Z,93946.43
2023-01-19T01:08:30.610Z,93949.67
2023-01-19T01:10:58.977Z,93944.80
2023-01-19T01:13:28.216Z,93949.16
2023-01-19T01:15:57.110Z,93939.83
2023-01-19T01:18:26.337Z,93945.54
2023-01-19T01:21:05.249Z,93938.21
2023-01-19T01:23:34.968Z,93935.19
2023-01-19T01:26:03.195Z,93939.98
2023-01-19T01:28:31.753Z,93931.81
2023-01-19T01:30:59.938Z,93924.84
2023-01-19T01:33:41.092Z,93923.27
2023-01-19T01:36:11.847Z,93909.20
2023-01-19T01:38:41.575Z,93905.59
2023-01-19T01:41:10.494Z,93903.15
2023-01-19T01:43:54.179Z,93901.65
2023-01-19T01:46:22.220Z,93903.64
2023-01-19T01:49:19.837Z,93904.53
2023-01-19T01:51:52.497Z,93896.94
2023-01-19T01:54:27.127Z,93895.05
2023-01-19T01:57:00.595Z,93888.92
2023-01-19T01:59:40.055Z,93884.42
2023-01-19T02:02:31.483Z,93881.13
2023-01-19T02:05:06.949Z,93884.05
2023-01-19T02:08:15.908Z,93888.21
2023-01-19T02:11:03.403Z,93894.25
2023-01-19T02:13:35.648Z,93899.07
2023-01-19T02:16:07.878Z,93896.02
2023-01-19T02:18:37.385Z,93890.83
2023-01-19T02:21:12.075Z,93881.28
2023-01-19T02:23:50.371Z,93868.97
2023-01-19T02:26:22.361Z,93858.41
2023-01-19T02:28:59.639Z,93851.19
2023-01-19T02:31:30.239Z,93846.13
2023-01-19T02:34:00.666Z,93849.92
2023-01-19T02:36:35.038Z,93854.35
2023-01-19T02:39:06.363Z,93848.13
2023-01-19T02:41:40.895Z,93848.16
2023-01-19T02:44:11.235Z,93838.66
2023-01-19T02:46:39.902Z,93834.19
2023-01-19T02:49:08.144Z,93831.13
2023-01-19T02:51:36.403Z,93827.81
2023-01-19T02:54:25.785Z,93828.00
2023-01-19T02:57:08.866Z,93830.74
2023-01-19T03:00:09.880Z,93821.99
2023-01-19T03:02:53.744Z,93816.17
2023-01-19T03:06:06.569Z,93819.40
2023-01-19T03:08:44.231Z,93827.13
2023-01-19T03:11:14.563Z,93818.23
2023-01-19T03:13:54.305Z,93817.77
2023-01-19T03:16:34.762Z,93813.98
2023-01-19T03:19:19.381Z,93819.91
2023-01-19T03:21:49.670Z,93832.05
2023-01-19T03:24:20.950Z,93840.23
2023-01-19T03:26:57.878Z,93852.59
2023-01-19T03:29:32.643Z,93866.71
2023-01-19T03:32:06.355Z,93863.29
2023-01-19T03:34:36.165Z,93856.03
2023-01-19T03:37:07.056Z,93848.98
2023-01-19T03:39:35.437Z,93845.28
2023-01-19T03:42:08.683Z,93842.27
2023-01-19T03:44:40.402Z,93847.31
2023-01-19T03:47:11.354Z,93848.68
2023-01-19T03:49:43.296Z,93850.72
2023-01-19T03:52:12.978Z,93845.39
2023-01-19T03:54:41.256Z,93845.68
2023-01-19T03:57:10.220Z,93838.06
2023-01-19T03:59:38.288Z,93829.70
2023-01-19T04:02:06.526Z,93821.45
2023-01-19T04:04:34.987Z,93816.82
2023-01-19T04:07:03.153Z,93819.86
2023-01-19T04:09:31.293Z,93820.56
2023-01-19T04:12:01.715Z,93823.62
2023-01-19T04:14:30.010Z,93828.70
2023-01-19T04:16:58.313Z,93834.73
2023-01-19T04:19:26.483Z,93828.86
2023-01-19T04:21:55.803Z,93819.05
2023-01-19T04:24:24.047Z,93808.20
2023-01-19T04:26:53.717Z,93804.79
2023-01-19T04:29:21.865Z,93805.29
2023-01-19T04:31:49.954Z,93801.45
2023-01-19T04:34:18.130Z,93799.48
2023-01-19T04:36:47.035Z,93788.06
2023-01-19T04:39:15.681Z,93782.12
2023-01-19T04:41:44.079Z,93787.43
2023-01-19T04:44:12.184Z,93787.91
2023-01-19T04:46:40.350Z,93796.20
2023-01-19T04:49:09.526Z,93771.38
2023-01-19T04:51:37.658Z,93724.60
2023-01-19T04:54:06.996Z,93717.89
2023-01-19T04:56:35.844Z,93751.14
2023-01-19T04:59:04.254Z,93748.61
2023-01-19T05:01:32.922Z,93755.42
2023-01-19T05:04:03.821Z,93767.25
2023-01-19T05:06:33.018Z,93771.70
2023-01-19T05:09:01.199Z,93779.73
2023-01-19T05:11:29.340Z,93774.09
2023-01-19T05:13:57.526Z,93770.28
2023-01-19T05:16:25.758Z,93768.64
2023-01-19T05:18:54.077Z,93771.21
2023-01-19T05:21:22.415Z,93772.95
2023-01-19T05:23:50.516Z,93785.35
2023-01-19T05:26:18.663Z,93783.45
2023-01-19T05:28:46.844Z,93788.14
2023-01-19T05:31:15.291Z,93777.08
2023-01-19T05:33:43.958Z,93778.77
2023-01-19T05:36:12.080Z,93781.98
2023-01-19T05:38:40.197Z,93783.42
2023-01-19T05:41:08.600Z,93787.95
2023-01-19T05:43:36.714Z,93794.71
2023-01-19T05:46:07.998Z,93805.87
2023-01-19T05:48:36.222Z,93799.35
2023-01-19T05:51:05.544Z,93784.80
2023-01-19T05:53:33.685Z,93792.87
2023-01-19T05:56:08.691Z,93797.82
2023-01-19T05:58:40.234Z,93793.77
2023-01-19T06:01:12.716Z,93796.56
2023-01-19T06:03:41.117Z,93793.58
2023-01-19T06:06:09.404Z,93798.05
2023-01-19T06:08:37.589Z,93804.91
2023-01-19T06:11:07.701Z,93810.15
2023-01-19T06:13:36.581Z,93802.23
2023-01-19T06:16:05.124Z,93814.61
2023-01-19T06:18:34.406Z,93806.25
2023-01-19T06:21:07.842Z,93802.92
2023-01-19T06:23:36.987Z,93802.08
2023-01-19T06:26:05.969Z,93801.32
2023-01-19T06:28:34.154Z,93804.36
2023-01-19T06:31:03.835Z,93803.24
2023-01-19T06:33:32.226Z,93817.77
2023-01-19T06:36:00.351Z,93822.73
2023-01-19T06:38:28.629Z,93835.54
2023-01-19T06:40:58.816Z,93847.44
2023-01-19T06:43:27.134Z,93854.58
2023-01-19T06:45:56.739Z,93857.56
2023-01-19T06:48:25.103Z,93868.23
2023-01-19T06:50:53.406Z,93876.59
2023-01-19T06:53:22.478Z,93883.16
2023-01-19T06:55:50.731Z,93880.02
2023-01-19T06:58:19.587Z,93876.38
2023-01-19T07:00:49.086Z,93863.85
2023-01-19T07:03:22.377Z,93855.80
2023-01-19T07:05:52.830Z,93847.34
2023-01-19T07:08:21.100Z,93841.33
2023-01-19T07:11:25.222Z,93825.81
2023-01-19T07:13:40.021Z,93827.58
2023-01-19T07:16:11.199Z,93824.33
2023-01-19T07:18:41.080Z,93825.98
2023-01-19T07:21:09.524Z,93831.73
2023-01-19T07:23:38.669Z,93833.45
2023-01-19T07:26:06.999Z,93828.59
2023-01-19T07:28:37.124Z,93823.42
2023-01-19T07:31:05.687Z,93815.61
2023-01-19T07:33:33.935Z,93824.64
2023-01-19T07:36:02.264Z,93834.85
2023-01-19T07:38:30.436Z,93848.47
2023-01-19T07:41:03.283Z,93842.36
2023-01-19T07:43:32.682Z,93839.45
2023-01-19T07:46:04.009Z,93853.25
2023-01-19T07:48:33.957Z,93861.89
2023-01-19T07:51:11.061Z,93865.79
2023-01-19T07:53:42.100Z,93873.05
2023-01-19T07:56:11.375Z,93883.71
2023-01-19T07:58:40.046Z,93894.43
2023-01-19T08:01:11.239Z,93909.73
2023-01-19T08:03:40.688Z,93928.70
2023-01-19T08:06:19.593Z,93923.41
2023-01-19T08:08:49.743Z,93913.31
2023-01-19T08:11:19.174Z,93897.11
2023-01-19T08:13:48.451Z,93896.52
2023-01-19T08:16:17.992Z,93895.86
2023-01-19T08:18:46.814Z,93885.13
2023-01-19T08:21:14.930Z,93882.66
2023-01-19T08:23:44.364Z,93882.48
2023-01-19T08:26:21.447Z,93888.98
2023-01-19T08:28:49.973Z,93898.18
2023-01-19T08:31:21.234Z,93906.23
2023-01-19T08:33:51.404Z,93910.00
2023-01-19T08:36:21.476Z,93911.44
2023-01-19T08:38:53.824Z,93907.21
2023-01-19T08:41:24.298Z,93914.09
2023-01-19T08:43:57.747Z,93925.88
2023-01-19T08:46:26.115Z,93928.80
2023-01-19T08:48:57.773Z,93928.36
2023-01-19T08:51:31.795Z,93922.61
2023-01-19T08:54:00.108Z,93919.98
2023-01-19T08:56:28.332Z,93920.27
2023-01-19T08:59:09.321Z,93919.89
2023-01-19T09:01:39.212Z,93914.16
2023-01-19T09:04:07.756Z,93910.27
2023-01-19T09:06:36.062Z,93912.54
2023-01-19T09:09:04.555Z,93916.16
2023-01-19T09:11:33.264Z,93915.98
2023-01-19T09:14:01.701Z,93916.45
2023-01-19T09:16:29.830Z,93921.32
2023-01-19T09:18:58.689Z,93918.30
2023-01-19T09:21:28.189Z,93914.17
2023-01-19T09:23:57.810Z,93904.59
2023-01-19T09:26:27.329Z,93914.86
2023-01-19T09:28:55.472Z,93916.09
2023-01-19T09:31:25.544Z,93914.64
2023-01-19T09:33:54.237Z,93925.56
2023-01-19T09:36:22.798Z,93931.81
2023-01-19T09:38:51.748Z,93928.98
2023-01-19T09:41:22.699Z,93925.77
2023-01-19T09:43:59.798Z,93931.69
2023-01-19T09:46:42.302Z,93929.82
2023-01-19T09:49:17.972Z,93930.23
2023-01-19T09:51:48.857Z,93925.84
2023-01-19T09:54:53.047Z,93927.41
2023-01-19T09:57:24.688Z,93924.02
2023-01-19T09:59:58.225Z,93924.99
2023-01-19T10:02:54.345Z,93923.80
2023-01-19T10:05:40.243Z,93922.24
2023-01-19T10:08:26.930Z,93909.79
2023-01-19T10:10:57.766Z,93905.45
2023-01-19T10:13:42.666Z,93907.36
2023-01-19T10:16:31.726Z,93908.73
2023-01-19T10:19:17.078Z,93903.56
2023-01-19T10:21:48.091Z,93896.80
2023-01-19T10:24:38.849Z,93895.20
2023-01-19T10:27:18.094Z,93881.58
2023-01-19T10:29:47.535Z,93878.71
2023-01-19T10:32:28.236Z,93876.88
2023-01-19T10:34:58.707Z,93879.46
2023-01-19T10:37:37.203Z,93878.35
2023-01-19T10:40:11.815Z,93885.16
2023-01-19T10:42:42.160Z,93883.41
2023-01-19T10:45:25.991Z,93896.61
2023-01-19T10:47:58.165Z,93906.91
2023-01-19T10:50:30.830Z,93899.17
2023-01-19T10:53:02.065Z,93892.38
2023-01-19T10:55:40.092Z,93888.39
2023-01-19T10:58:27.572Z,93888.65
2023-01-19T11:00:56.124Z,93883.93
2023-01-19T11:03:29.242Z,93887.38
2023-01-19T11:06:15.768Z,93884.92
2023-01-19T11:08:45.990Z,93885.80
2023-01-19T11:11:14.736Z,93889.50
2023-01-19T11:13:44.053Z,93888.27
2023-01-19T11:16:35.081Z,93882.91
2023-01-19T11:19:03.727Z,93879.52
2023-01-19T11:21:33.232Z,93880.35
2023-01-19T11:24:05.492Z,93876.64
2023-01-19T11:26:41.060Z,93882.91
2023-01-19T11:29:27.484Z,93880.73
2023-01-19T11:32:09.204Z,93890.74
2023-01-19T11:34:39.344Z,93893.64
2023-01-19T11:37:16.771Z,93893.27
2023-01-19T11:39:54.051Z,93899.89
2023-01-19T11:42:22.766Z,93900.27
2023-01-19T11:45:12.595Z,93900.11
2023-01-19T11:47:45.629Z,93903.19
2023-01-19T11:50:29.605Z,93896.09
2023-01-19T11:53:07.569Z,93900.73
2023-01-19T11:56:05.013Z,93899.32
2023-01-19T11:58:46.986Z,93893.88
2023-01-19T12:01:27.936Z,93899.64
2023-01-19T12:04:14.349Z,93902.48
2023-01-19T12:06:47.952Z,93901.28
2023-01-19T12:09:24.411Z,93897.20
2023-01-19T12:12:00.395Z,93892.17
2023-01-19T12:14:43.749Z,93894.67
2023-01-19T12:17:24.790Z,93895.50
2023-01-19T12:20:24.572Z,93902.75
2023-01-19T12:23:02.902Z,93906.67
2023-01-19T12:25:49.296Z,93911.77
2023-01-19T12:28:22.751Z,93921.45
2023-01-19T12:30:52.367Z,93925.48
2023-01-19T12:33:20.846Z,93926.77
2023-01-19T12:36:01.153Z,93920.85
2023-01-19T12:39:18.366Z,93923.85
2023-01-19T12:41:48.320Z,93934.02
2023-01-19T12:44:21.514Z,93930.75
2023-01-19T12:47:04.134Z,93934.28
2023-01-19T12:49:43.096Z,93925.86
2023-01-19T12:52:30.948Z,93922.16
2023-01-19T12:55:15.212Z,93920.05
2023-01-19T12:58:28.624Z,93911.96
2023-01-19T13:01:16.723Z,93917.52
2023-01-19T13:04:09.290Z,93923.55
2023-01-19T13:06:47.963Z,93922.36
2023-01-19T13:09:33.568Z,93930.04
2023-01-19T13:12:14.100Z,93940.17
2023-01-19T13:14:43.896Z,93937.41
2023-01-19T13:17:28.087Z,93934.16
2023-01-19T13:20:25.611Z,93934.27
2023-01-19T13:23:16.885Z,93936.82
2023-01-19T13:25:50.936Z,93935.13
2023-01-19T13:28:22.448Z,93936.17
2023-01-19T13:30:56.629Z,93939.40
2023-01-19T13:33:26.706Z,93944.90
2023-01-19T13:35:58.986Z,93948.44
2023-01-19T13:38:29.421Z,93952.73
2023-01-19T13:41:01.808Z,93956.23
2023-01-19T13:43:37.240Z,93950.82
2023-01-19T13:46:06.285Z,93954.33
2023-01-19T13:48:34.735Z,93945.20
2023-01-19T13:51:06.263Z,93930.95
2023-01-19T13:53:35.616Z,93933.71
2023-01-19T13:56:09.726Z,93948.19
2023-01-19T13:58:37.927Z,93954.84
2023-01-19T14:01:06.220Z,93965.36
2023-01-19T14:03:34.503Z,93975.34
2023-01-19T14:06:15.614Z,93982.52
2023-01-19T14:08:44.908Z,93984.93
2023-01-19T14:11:14.408Z,93983.34
2023-01-19T14:13:45.022Z,93991.23
2023-01-19T14:16:17.317Z,93993.31
2023-01-19T14:18:45.548Z,93989.38
2023-01-19T14:21:16.052Z,93989.85
2023-01-19T14:23:55.206Z,93992.95
2023-01-19T14:26:49.364Z,93997.45
2023-01-19T14:29:17.644Z,94001.94
2023-01-19T14:31:53.641Z,93998.75
2023-01-19T14:34:41.568Z,93999.59
2023-01-19T14:37:38.326Z,94003.89
2023-01-19T14:40:11.274Z,94004.80
2023-01-19T14:42:48.088Z,94006.29
2023-01-19T14:45:23.936Z,94016.11
2023-01-19T14:47:59.871Z,94022.62
2023-01-19T14:50:41.468Z,94030.81
2023-01-19T14:53:23.885Z,94030.88
2023-01-19T14:56:04.688Z,94029.85
2023-01-19T14:58:35.295Z,94028.50
2023-01-19T15:01:04.994Z,94030.09
2023-01-19T15:03:44.064Z,94037.44
2023-01-19T15:06:16.621Z,94040.93
2023-01-19T15:08:46.170Z,94043.27
2023-01-19T15:11:29.965Z,94040.13
2023-01-19T15:13:59.225Z,94032.34
2023-01-19T15:16:31.045Z,94027.53
2023-01-19T15:18:59.149Z,94027.92
2023-01-19T15:21:27.379Z,94037.66
2023-01-19T15:23:55.677Z,94046.39
2023-01-19T15:26:26.040Z,94055.82
2023-01-19T15:28:56.443Z,94060.64
2023-01-19T15:31:26.390Z,94066.15
2023-01-19T15:33:54.600Z,94069.40
2023-01-19T15:36:24.461Z,94072.92
2023-01-19T15:38:52.722Z,94066.95
2023-01-19T15:41:26.647Z,94066.20
2023-01-19T15:43:54.896Z,94074.64
2023-01-19T15:46:25.441Z,94081.06
2023-01-19T15:48:54.604Z,94085.55
2023-01-19T15:51:27.789Z,94084.04
2023-01-19T15:53:56.707Z,94095.33
2023-01-19T15:56:27.419Z,94111.17
2023-01-19T15:58:56.900Z,94121.83
2023-01-19T16:01:35.308Z,94122.15
2023-01-19T16:04:06.774Z,94120.61
2023-01-19T16:06:35.160Z,94120.02
2023-01-19T16:09:04.000Z,94116.33
2023-01-19T16:11:35.099Z,94115.27
2023-01-19T16:14:03.291Z,94117.06
2023-01-19T16:16:31.617Z,94117.71
2023-01-19T16:18:59.746Z,94121.27
2023-01-19T16:21:28.482Z,94116.90
2023-01-19T16:23:56.695Z,94116.85
2023-01-19T16:26:35.051Z,94122.52
2023-01-19T16:29:09.938Z,94129.66
2023-01-19T16:31:40.201Z,94137.61
2023-01-19T16:34:09.491Z,94144.35
2023-01-19T16:36:42.975Z,94150.74
2023-01-19T16:39:13.942Z,94153.88
2023-01-19T16:41:43.473Z,94148.60
2023-01-19T16:44:13.547Z,94150.48
2023-01-19T16:46:45.416Z,94153.38
2023-01-19T16:49:19.301Z,94159.67
2023-01-19T16:51:48.691Z,94158.23
2023-01-19T16:54:23.129Z,94168.98
2023-01-19T16:56:51.124Z,94176.30
2023-01-19T16:59:21.198Z,94174.98
2023-01-19T17:01:51.172Z,94178.02
2023-01-19T17:04:21.708Z,94174.19
2023-01-19T17:06:52.856Z,94178.21
2023-01-19T17:09:21.086Z,94177.52
2023-01-19T17:11:49.415Z,94183.05
2023-01-19T17:14:21.051Z,94185.05
2023-01-19T17:16:49.921Z,94184.20
2023-01-19T17:19:20.604Z,94194.38
2023-01-19T17:21:49.629Z,94190.23
2023-01-19T17:24:18.512Z,94191.02
2023-01-19T17:26:50.548Z,94186.36
2023-01-19T17:29:18.934Z,94186.56
2023-01-19T17:31:50.734Z,94186.89
2023-01-19T17:34:18.828Z,94192.97
2023-01-19T17:36:47.187Z,94196.21
2023-01-19T17:39:17.034Z,94191.33
2023-01-19T17:41:45.282Z,94191.96
2023-01-19T17:44:13.463Z,94194.01
2023-01-19T17:46:41.818Z,94200.79
2023-01-19T17:49:11.142Z,94199.33
2023-01-19T17:51:39.234Z,94198.33
2023-01-19T17:54:07.528Z,94202.85
2023-01-19T17:56:38.712Z,94202.65
2023-01-19T17:59:08.260Z,94210.09
2023-01-19T18:01:40.117Z,94213.66
2023-01-19T18:04:09.092Z,94215.33
2023-01-19T18:06:38.076Z,94219.59
2023-01-19T18:09:09.328Z,94226.01
2023-01-19T18:11:37.657Z,94225.36
2023-01-19T18:14:06.792Z,94224.57
2023-01-19T18:16:36.076Z,94219.33
2023-01-19T18:19:04.340Z,94215.04
2023-01-19T18:21:32.565Z,94214.15
2023-01-19T18:24:03.376Z,94214.46
2023-01-19T18:26:34.495Z,94216.10
2023-01-19T18:29:02.648Z,94223.64
2023-01-19T18:31:31.368Z,94230.96
2023-01-19T18:33:59.939Z,94232.42
2023-01-19T18:36:28.516Z,94241.23
2023-01-19T18:38:56.763Z,94253.79
2023-01-19T18:41:25.068Z,94268.14
2023-01-19T18:43:58.291Z,94273.97
2023-01-19T18:46:27.532Z,94274.84
2023-01-19T18:48:56.060Z,94286.48
2023-01-19T18:51:27.205Z,94292.20
2023-01-19T18:53:57.466Z,94294.66
2023-01-19T18:56:26.219Z,94300.55
2023-01-19T18:58:54.637Z,94297.48
2023-01-19T19:01:27.924Z,94297.38
2023-01-19T19:03:57.654Z,94303.68
2023-01-19T19:06:27.323Z,94309.06
2023-01-19T19:08:57.408Z,94313.33
2023-01-19T19:11:27.000Z,94313.05
2023-01-19T19:14:01.228Z,94308.31
2023-01-19T19:16:30.316Z,94319.32
2023-01-19T19:18:59.629Z,94320.66
2023-01-19T19:21:28.043Z,94323.81
2023-01-19T19:23:58.132Z,94327.67
2023-01-19T19:26:28.368Z,94322.52
2023-01-19T19:28:57.046Z,94318.38
2023-01-19T19:31:27.045Z,94315.73
2023-01-19T19:33:56.564Z,94313.86
2023-01-19T19:36:26.624Z,94321.38
2023-01-19T19:38:56.759Z,94327.54
2023-01-19T19:41:27.763Z,94328.00
2023-01-19T19:43:56.228Z,94320.63
2023-01-19T19:46:25.856Z,94315.82
2023-01-19T19:48:54.864Z,94306.66
2023-01-19T19:51:27.192Z,94299.93
2023-01-19T19:53:59.932Z,94300.02
2023-01-19T19:56:30.586Z,94308.02
2023-01-19T19:58:59.591Z,94308.27
2023-01-19T20:01:32.983Z,94312.42
2023-01-19T20:04:06.223Z,94316.09
2023-01-19T20:06:42.235Z,94322.33
2023-01-19T20:09:14.928Z,94322.80
2023-01-19T20:11:44.832Z,94324.15
2023-01-19T20:14:14.419Z,94328.04
2023-01-19T20:16:43.040Z,94336.48
2023-01-19T20:19:11.417Z,94340.04
2023-01-19T20:21:44.444Z,94351.58
2023-01-19T20:24:19.074Z,94354.00
2023-01-19T20:26:50.529Z,94353.08
2023-01-19T20:29:20.681Z,94351.09
2023-01-19T20:31:52.512Z,94357.65
2023-01-19T20:34:25.180Z,94357.54
2023-01-19T20:36:54.188Z,94360.33
2023-01-19T20:39:24.121Z,94364.48
2023-01-19T20:41:54.010Z,94361.59
2023-01-19T20:44:24.044Z,94356.53
2023-01-19T20:46:53.565Z,94358.15
2023-01-19T20:49:22.103Z,94371.38
2023-01-19T20:51:52.224Z,94368.16
2023-01-19T20:54:24.748Z,94377.73
2023-01-19T20:56:53.206Z,94380.44
2023-01-19T20:59:21.431Z,94383.62
2023-01-19T21:01:50.245Z,94384.58
2023-01-19T21:04:19.075Z,94392.29
2023-01-19T21:06:47.190Z,94392.83
2023-01-19T21:09:15.680Z,94391.44
2023-01-19T21:11:44.481Z,94390.29
2023-01-19T21:14:12.917Z,94393.94
2023-01-19T21:16:42.716Z,94395.61
2023-01-19T21:19:12.017Z,94398.78
2023-01-19T21:21:40.383Z,94396.79
2023-01-19T21:24:10.780Z,94397.05
2023-01-19T21:26:39.081Z,94391.92
2023-01-19T21:29:07.678Z,94394.02
2023-01-19T21:31:35.903Z,94398.20
2023-01-19T21:34:04.035Z,94402.90
2023-01-19T21:36:32.131Z,94417.46
2023-01-19T21:39:00.992Z,94426.06
2023-01-19T21:41:34.917Z,94428.07
2023-01-19T21:44:03.214Z,94434.27
2023-01-19T21:46:33.227Z,94435.04
2023-01-19T21:49:04.430Z,94434.59
2023-01-19T21:51:35.440Z,94431.60
2023-01-19T21:54:05.295Z,94435.13
2023-01-19T21:56:35.065Z,94444.70
2023-01-19T21:59:04.825Z,94458.86
2023-01-19T22:01:33.654Z,94467.13
2023-01-19T22:04:02.068Z,94464.55
2023-01-19T22:06:30.475Z,94463.37
2023-01-19T22:09:00.853Z,94464.61
2023-01-19T22:11:30.326Z,94456.03
2023-01-19T22:14:02.279Z,94458.95
2023-01-19T22:16:31.040Z,94460.30
2023-01-19T22:19:02.117Z,94449.80
2023-01-19T22:21:33.729Z,94450.48
2023-01-19T22:24:04.141Z,94447.00
2023-01-19T22:26:34.485Z,94439.77
2023-01-19T22:29:05.342Z,94433.08
2023-01-19T22:31:33.621Z,94432.25
2023-01-19T22:34:01.820Z,94425.89
2023-01-19T22:36:35.768Z,94426.79
2023-01-19T22:39:10.341Z,94425.11
2023-01-19T22:41:44.050Z,94428.99
2023-01-19T22:44:17.525Z,94436.55
2023-01-19T22:46:45.706Z,94447.04
2023-01-19T22:49:16.042Z,94459.62
2023-01-19T22:51:45.155Z,94464.75
2023-01-19T22:54:13.678Z,94468.70
2023-01-19T22:56:42.981Z,94465.91
2023-01-19T22:59:11.187Z,94467.36
2023-01-19T23:01:42.683Z,94464.77
2023-01-19T23:04:16.083Z,94464.91
2023-01-19T23:06:47.075Z,94467.66
2023-01-19T23:09:16.044Z,94468.14
2023-01-19T23:11:51.273Z,94466.45
2023-01-19T23:14:22.039Z,94465.62
2023-01-19T23:16:50.325Z,94472.52
2023-01-19T23:19:19.342Z,94479.81
2023-01-19T23:21:51.961Z,94477.40
2023-01-19T23:24:20.258Z,94466.98
2023-01-19T23:26:51.486Z,94459.55
2023-01-19T23:29:19.912Z,94463.57
2023-01-19T23:31:49.792Z,94473.45
2023-01-19T23:34:18.030Z,94477.45
2023-01-19T23:36:46.251Z,94473.90
2023-01-19T23:39:17.374Z,94476.88
2023-01-19T23:41:45.845Z,94475.09
2023-01-19T23:44:14.095Z,94482.68
2023-01-19T23:46:43.950Z,94480.70
2023-01-19T23:49:13.556Z,94480.30
2023-01-19T23:51:41.987Z,94468.15
2023-01-19T23:54:10.315Z,94456.80
2023-01-19T23:56:39.014Z,94443.97
2023-01-19T23:59:09.830Z,94442.22
